createdAt,value
2019-01-12T00:03:57.835Z,15.30
2019-01-12T00:09:01.230Z,12.33
2019-01-12T00:14:24.545Z,13.17
2019-01-12T00:19:48.000Z,14.20
2019-01-12T00:24:51.444Z,10.63
2019-01-12T00:29:54.889Z,12.67
2019-01-12T00:34:58.357Z,11.83
2019-01-12T00:40:01.722Z,12.07
2019-01-12T00:50:55.606Z,13.03
2019-01-12T00:55:59.022Z,11.03
2019-01-12T01:01:02.480Z,15.17
2019-01-12T01:06:05.818Z,9.13
2019-01-12T01:11:09.175Z,12.70
2019-01-12T01:16:12.557Z,15.43
2019-01-12T01:21:15.943Z,14.40
2019-01-12T01:26:39.270Z,16.13
2019-01-12T01:31:42.645Z,18.73
2019-01-12T01:36:46.121Z,13.27
2019-01-12T01:41:49.530Z,17.23
2019-01-12T01:46:52.936Z,14.93
2019-01-12T01:51:56.318Z,15.00
2019-01-12T01:56:59.740Z,17.83
2019-01-12T02:02:03.161Z,17.80
2019-01-12T02:07:26.585Z,17.13
2019-01-12T02:12:30.029Z,15.23
2019-01-12T02:17:33.535Z,15.60
2019-01-12T02:22:36.891Z,14.20
2019-01-12T02:27:40.309Z,15.97
2019-01-12T02:32:43.710Z,17.63
2019-01-12T02:37:47.151Z,18.27
2019-01-12T02:42:50.567Z,17.63
2019-01-12T02:47:53.982Z,18.83
2019-01-12T02:52:57.374Z,19.33
2019-01-12T03:03:29.244Z,17.23
2019-01-12T03:08:32.601Z,17.73
2019-01-12T03:13:36.082Z,15.90
2019-01-12T03:18:39.548Z,17.07
2019-01-12T03:23:42.897Z,17.33
2019-01-12T03:28:46.375Z,18.13
2019-01-12T03:33:49.840Z,18.57
2019-01-12T03:38:53.218Z,21.07
2019-01-12T03:43:56.567Z,17.63
2019-01-12T03:49:00.031Z,17.47
2019-01-12T03:59:53.232Z,13.00
2019-01-12T04:04:56.601Z,12.67
2019-01-12T04:10:00.013Z,11.93
2019-01-12T04:15:03.380Z,13.30
2019-01-12T04:20:07.892Z,11.80
2019-01-12T04:25:11.394Z,11.60
2019-01-12T04:30:34.697Z,8.97
2019-01-12T04:35:38.103Z,9.40
2019-01-12T04:40:41.451Z,11.70
2019-01-12T04:45:44.810Z,7.90
2019-01-12T04:50:48.158Z,8.90
2019-01-12T04:55:51.535Z,6.40
2019-01-12T05:00:54.890Z,6.27
2019-01-12T05:05:58.357Z,10.10
2019-01-12T05:11:01.703Z,5.87
2019-01-12T05:16:05.229Z,8.13
2019-01-12T05:21:08.623Z,7.43
2019-01-12T05:26:12.054Z,10.30
2019-01-12T05:31:35.387Z,9.63
2019-01-12T05:36:38.741Z,11.33
2019-01-12T05:41:42.198Z,14.87
2019-01-12T05:46:45.578Z,12.47
2019-01-12T05:51:48.977Z,12.23
2019-01-12T05:56:52.433Z,12.97
2019-01-12T06:01:55.801Z,15.90
2019-01-12T06:06:59.192Z,18.87
2019-01-12T06:12:21.619Z,18.10
2019-01-12T06:17:25.133Z,17.93
2019-01-12T06:22:28.523Z,20.40
2019-01-12T06:27:31.888Z,22.90
2019-01-12T06:32:35.253Z,20.83
2019-01-12T06:37:38.621Z,22.93
2019-01-12T06:42:42.071Z,22.27
2019-01-12T06:47:45.454Z,21.93
2019-01-12T06:52:48.932Z,22.90
2019-01-12T06:57:52.399Z,20.40
2019-01-12T07:02:55.795Z,23.00
2019-01-12T07:07:59.204Z,24.33
2019-01-12T07:13:02.649Z,26.43
2019-01-12T07:18:08.963Z,25.43
2019-01-12T07:23:31.144Z,28.37
2019-01-12T07:28:54.512Z,27.47
2019-01-12T07:33:57.934Z,26.83
2019-01-12T07:39:01.506Z,30.67
2019-01-12T07:44:05.039Z,30.63
2019-01-12T07:49:28.398Z,30.60
2019-01-12T07:54:31.759Z,29.93
2019-01-12T07:59:35.151Z,31.50
2019-01-12T08:04:38.633Z,34.23
2019-01-12T08:09:42.013Z,34.87
2019-01-12T08:14:58.722Z,34.27
2019-01-12T08:26:00.275Z,32.23
2019-01-12T08:31:03.901Z,31.80
2019-01-12T08:38:23.864Z,30.10
2019-01-12T08:43:47.176Z,29.73
2019-01-12T08:48:51.072Z,33.45
2019-01-12T08:53:54.941Z,34.07
2019-01-12T08:59:01.444Z,30.77
2019-01-12T09:04:05.257Z,32.50
2019-01-12T09:09:09.002Z,31.00
2019-01-12T09:14:12.999Z,29.60
2019-01-12T09:19:16.755Z,28.63
2019-01-12T09:24:20.854Z,29.60
2019-01-12T09:29:24.627Z,27.70
2019-01-12T09:34:28.375Z,29.40
2019-01-12T09:39:32.154Z,29.63
2019-01-12T09:45:36.999Z,28.03
2019-01-12T09:50:40.812Z,29.90
2019-01-12T09:55:44.556Z,30.17
2019-01-12T10:06:45.646Z,31.53
2019-01-12T10:17:18.594Z,31.85
2019-01-12T10:22:28.445Z,30.25
2019-01-12T10:27:47.358Z,32.47
2019-01-12T10:32:51.209Z,28.47
2019-01-12T10:38:08.277Z,30.30
2019-01-12T10:43:20.051Z,32.67
2019-01-12T10:48:23.779Z,29.77
2019-01-12T10:53:27.566Z,31.10
2019-01-12T10:58:31.272Z,29.63
2019-01-12T11:03:35.062Z,34.30
2019-01-12T11:13:56.176Z,33.37
2019-01-12T11:19:19.539Z,33.20
2019-01-12T11:24:23.276Z,33.27
2019-01-12T11:29:46.559Z,32.43
2019-01-12T11:34:50.319Z,30.40
2019-01-12T11:39:54.203Z,34.18
2019-01-12T11:44:57.952Z,31.87
2019-01-12T11:50:01.796Z,34.70
2019-01-12T11:55:06.150Z,32.57
2019-01-12T12:00:12.303Z,32.57
2019-01-12T12:05:17.273Z,34.03
2019-01-12T12:10:41.248Z,28.53
2019-01-12T12:15:44.997Z,26.87
2019-01-12T12:20:48.703Z,25.27
2019-01-12T12:25:52.451Z,24.87
2019-01-12T12:30:58.891Z,24.53
2019-01-12T12:36:02.715Z,21.47
2019-01-12T12:41:06.515Z,20.80
2019-01-12T12:46:10.360Z,18.87
2019-01-12T12:51:14.135Z,24.60
2019-01-12T12:56:17.945Z,18.27
2019-01-12T13:01:21.683Z,19.13
2019-01-12T13:06:44.995Z,20.35
2019-01-12T13:11:48.815Z,17.13
2019-01-12T13:17:12.187Z,17.60
2019-01-12T13:22:35.523Z,15.47
2019-01-12T13:27:40.032Z,16.97
2019-01-12T13:33:04.568Z,15.73
2019-01-12T13:38:08.729Z,16.93
2019-01-12T13:43:12.485Z,16.47
2019-01-12T13:48:16.290Z,16.20
2019-01-12T13:53:20.011Z,33.17
2019-01-12T13:58:43.369Z,18.47
2019-01-12T14:03:47.112Z,15.63
2019-01-12T14:08:50.869Z,15.50
2019-01-12T14:13:54.867Z,14.10
2019-01-12T14:19:18.169Z,13.67
2019-01-12T14:24:21.887Z,13.77
2019-01-12T14:29:25.632Z,13.67
2019-01-12T14:34:29.366Z,13.43
2019-01-12T14:44:56.016Z,16.70
2019-01-12T14:49:59.824Z,17.43
2019-01-12T14:55:05.190Z,16.60
2019-01-12T15:00:13.655Z,14.67
2019-01-12T15:05:42.797Z,16.87
2019-01-12T15:10:48.304Z,17.90
2019-01-12T15:15:52.097Z,18.63
2019-01-12T15:20:55.957Z,19.70
2019-01-12T15:26:19.476Z,22.87
2019-01-12T15:31:42.871Z,22.53
2019-01-12T15:37:06.271Z,22.07
2019-01-12T15:42:09.999Z,21.27
2019-01-12T15:47:13.814Z,20.73
2019-01-12T15:52:17.611Z,15.67
2019-01-12T15:57:21.329Z,13.43
2019-01-12T16:02:25.175Z,13.80
2019-01-12T16:07:28.909Z,16.57
2019-01-12T16:12:51.667Z,16.27
2019-01-12T16:17:55.724Z,14.07
2019-01-12T16:22:59.555Z,13.80
2019-01-12T16:28:03.377Z,14.20
2019-01-12T16:33:10.270Z,15.13
2019-01-12T16:38:14.066Z,16.53
2019-01-12T16:43:20.886Z,12.10
2019-01-12T16:48:24.693Z,11.17
2019-01-12T16:53:28.550Z,10.87
2019-01-12T17:04:21.245Z,15.23
2019-01-12T17:09:25.150Z,11.87
2019-01-12T17:14:28.938Z,9.97
2019-01-12T17:19:32.727Z,5.87
2019-01-12T17:24:36.431Z,6.30
2019-01-12T17:29:40.273Z,5.23
2019-01-12T17:34:44.057Z,6.90
2019-01-12T17:39:47.774Z,5.43
2019-01-12T17:50:29.573Z,6.23
2019-01-12T17:55:33.276Z,4.53
2019-01-12T18:00:56.573Z,5.90
2019-01-12T18:06:19.956Z,8.77
2019-01-12T18:11:23.661Z,8.93
2019-01-12T18:16:27.433Z,9.43
2019-01-12T18:21:50.806Z,8.50
2019-01-12T18:26:54.517Z,9.33
2019-01-12T18:32:17.810Z,10.70
2019-01-12T18:37:21.543Z,11.43
2019-01-12T18:42:25.471Z,13.80
2019-01-12T18:47:29.246Z,13.03
2019-01-12T18:58:09.026Z,19.63
2019-01-12T19:03:32.399Z,17.90
2019-01-12T19:19:34.395Z,18.37
2019-01-12T19:24:38.249Z,13.27
2019-01-12T19:29:42.001Z,12.17
2019-01-12T19:34:45.869Z,13.93
2019-01-12T19:39:49.695Z,11.07
2019-01-12T19:44:53.396Z,13.47
2019-01-12T19:49:57.385Z,14.03
2019-01-12T19:55:01.178Z,15.60
2019-01-12T20:00:28.947Z,14.73
2019-01-12T20:05:52.255Z,17.20
2019-01-12T20:11:15.575Z,16.17
2019-01-12T20:16:19.265Z,12.97
2019-01-12T20:21:23.081Z,13.70
2019-01-12T20:26:26.779Z,9.07
2019-01-12T20:31:49.545Z,13.73
2019-01-12T20:37:31.975Z,12.33
2019-01-12T20:43:14.435Z,11.90
2019-01-12T20:48:22.781Z,17.03
2019-01-12T20:54:05.179Z,14.83
2019-01-12T20:59:28.150Z,16.93
2019-01-12T21:05:07.546Z,18.87
2019-01-12T21:10:50.154Z,19.57
2019-01-12T21:15:56.941Z,20.97
2019-01-12T21:21:03.526Z,16.95
2019-01-12T21:26:07.225Z,18.90
2019-01-12T21:31:10.961Z,16.63
2019-01-12T21:36:14.654Z,15.33
2019-01-12T21:41:38.013Z,14.93
2019-01-12T21:47:01.347Z,25.63
2019-01-12T21:52:24.811Z,24.83
2019-01-12T21:57:48.149Z,26.97
2019-01-12T22:03:11.616Z,24.80
2019-01-12T22:08:35.001Z,25.00
2019-01-12T22:13:38.754Z,21.90
2019-01-12T22:18:42.473Z,19.07
2019-01-12T22:23:46.297Z,18.97
2019-01-12T22:28:50.046Z,24.33
2019-01-12T22:34:13.379Z,19.03
2019-01-12T22:39:36.682Z,18.80
2019-01-12T22:44:40.442Z,20.00
2019-01-12T22:49:44.195Z,19.50
2019-01-12T22:54:47.916Z,16.73
2019-01-12T22:59:56.917Z,21.27
2019-01-12T23:05:16.780Z,31.97
2019-01-12T23:10:20.621Z,43.73
2019-01-12T23:15:24.431Z,36.23
2019-01-12T23:20:28.175Z,28.73
2019-01-12T23:25:51.787Z,29.90
2019-01-12T23:30:55.534Z,28.60
2019-01-12T23:41:28.330Z,24.00
2019-01-12T23:46:32.025Z,24.27
2019-01-12T23:51:35.740Z,19.57
2019-01-12T23:56:59.090Z,19.17
